sensor_id;sensor_type;location;lat;lon;timestamp;P1;durP1;ratioP1;P2;durP2;ratioP2
29574;SDS011;16507;51.046;6.406;2023-11-21T00:02:19;32.47;;;14.98;;
29574;SDS011;16507;51.046;6.406;2023-11-21T00:04:45;25.90;;;14.07;;
29574;SDS011;16507;51.046;6.406;2023-11-21T00:07:12;35.33;;;13.73;;
29574;SDS011;16507;51.046;6.406;2023-11-21T00:09:38;32.75;;;14.13;;
29574;SDS011;16507;51.046;6.406;2023-11-21T00:12:03;28.83;;;13.32;;
29574;SDS011;16507;51.046;6.406;2023-11-21T00:14:29;33.47;;;13.68;;
29574;SDS011;16507;51.046;6.406;2023-11-21T00:16:55;26.13;;;13.40;;
29574;SDS011;16507;51.046;6.406;2023-11-21T00:19:20;29.15;;;14.65;;
29574;SDS011;16507;51.046;6.406;2023-11-21T00:21:49;33.42;;;13.85;;
29574;SDS011;16507;51.046;6.406;2023-11-21T00:24:15;39.35;;;13.25;;
29574;SDS011;16507;51.046;6.406;2023-11-21T00:26:41;30.38;;;13.40;;
29574;SDS011;16507;51.046;6.406;2023-11-21T00:29:06;25.38;;;12.90;;
29574;SDS011;16507;51.046;6.406;2023-11-21T00:31:33;28.13;;;13.27;;
29574;SDS011;16507;51.046;6.406;2023-11-21T00:34:01;28.10;;;13.50;;
29574;SDS011;16507;51.046;6.406;2023-11-21T00:36:30;29.77;;;14.75;;
29574;SDS011;16507;51.046;6.406;2023-11-21T00:38:57;24.65;;;14.00;;
29574;SDS011;16507;51.046;6.406;2023-11-21T00:41:23;30.27;;;15.15;;
29574;SDS011;16507;51.046;6.406;2023-11-21T00:43:48;32.45;;;14.60;;
29574;SDS011;16507;51.046;6.406;2023-11-21T00:46:14;29.98;;;15.38;;
29574;SDS011;16507;51.046;6.406;2023-11-21T00:48:39;40.13;;;14.45;;
29574;SDS011;16507;51.046;6.406;2023-11-21T00:51:05;23.85;;;13.82;;
29574;SDS011;16507;51.046;6.406;2023-11-21T00:53:31;29.75;;;14.73;;
29574;SDS011;16507;51.046;6.406;2023-11-21T00:55:57;27.52;;;15.00;;
29574;SDS011;16507;51.046;6.406;2023-11-21T00:58:26;35.13;;;15.70;;
29574;SDS011;16507;51.046;6.406;2023-11-21T01:00:52;26.30;;;14.73;;
29574;SDS011;16507;51.046;6.406;2023-11-21T01:03:18;30.23;;;14.68;;
29574;SDS011;16507;51.046;6.406;2023-11-21T01:05:44;26.42;;;14.48;;
29574;SDS011;16507;51.046;6.406;2023-11-21T01:08:10;38.75;;;15.32;;
29574;SDS011;16507;51.046;6.406;2023-11-21T01:10:36;37.10;;;15.77;;
29574;SDS011;16507;51.046;6.406;2023-11-21T01:13:02;35.38;;;16.50;;
29574;SDS011;16507;51.046;6.406;2023-11-21T01:15:32;28.70;;;15.05;;
29574;SDS011;16507;51.046;6.406;2023-11-21T01:17:58;33.17;;;15.48;;
29574;SDS011;16507;51.046;6.406;2023-11-21T01:20:29;26.70;;;14.18;;
29574;SDS011;16507;51.046;6.406;2023-11-21T01:22:55;28.20;;;13.87;;
29574;SDS011;16507;51.046;6.406;2023-11-21T01:25:21;31.65;;;14.65;;
29574;SDS011;16507;51.046;6.406;2023-11-21T01:27:46;38.75;;;14.65;;
29574;SDS011;16507;51.046;6.406;2023-11-21T01:30:12;32.65;;;15.10;;
29574;SDS011;16507;51.046;6.406;2023-11-21T01:32:38;39.03;;;15.10;;
29574;SDS011;16507;51.046;6.406;2023-11-21T01:35:04;29.38;;;14.20;;
29574;SDS011;16507;51.046;6.406;2023-11-21T01:37:31;34.72;;;14.38;;
29574;SDS011;16507;51.046;6.406;2023-11-21T01:39:58;52.08;;;14.25;;
29574;SDS011;16507;51.046;6.406;2023-11-21T01:42:24;38.75;;;14.18;;
29574;SDS011;16507;51.046;6.406;2023-11-21T01:44:50;32.40;;;15.02;;
29574;SDS011;16507;51.046;6.406;2023-11-21T01:47:15;32.28;;;15.10;;
29574;SDS011;16507;51.046;6.406;2023-11-21T01:49:45;27.48;;;13.95;;
29574;SDS011;16507;51.046;6.406;2023-11-21T01:52:11;34.65;;;14.00;;
29574;SDS011;16507;51.046;6.406;2023-11-21T01:54:38;27.05;;;14.27;;
29574;SDS011;16507;51.046;6.406;2023-11-21T01:57:04;31.40;;;12.98;;
29574;SDS011;16507;51.046;6.406;2023-11-21T01:59:38;22.30;;;13.18;;
29574;SDS011;16507;51.046;6.406;2023-11-21T02:02:07;25.05;;;13.95;;
29574;SDS011;16507;51.046;6.406;2023-11-21T02:04:34;36.90;;;14.27;;
29574;SDS011;16507;51.046;6.406;2023-11-21T02:07:03;30.95;;;14.27;;
29574;SDS011;16507;51.046;6.406;2023-11-21T02:09:32;38.05;;;14.40;;
29574;SDS011;16507;51.046;6.406;2023-11-21T02:11:59;27.70;;;14.52;;
29574;SDS011;16507;51.046;6.406;2023-11-21T02:14:25;31.60;;;15.25;;
29574;SDS011;16507;51.046;6.406;2023-11-21T02:16:53;32.58;;;13.43;;
29574;SDS011;16507;51.046;6.406;2023-11-21T02:19:19;26.02;;;14.35;;
29574;SDS011;16507;51.046;6.406;2023-11-21T02:21:49;31.83;;;14.32;;
29574;SDS011;16507;51.046;6.406;2023-11-21T02:24:17;38.72;;;15.57;;
29574;SDS011;16507;51.046;6.406;2023-11-21T02:26:46;33.63;;;15.05;;
29574;SDS011;16507;51.046;6.406;2023-11-21T02:29:17;36.90;;;15.50;;
29574;SDS011;16507;51.046;6.406;2023-11-21T02:31:43;36.95;;;15.20;;
29574;SDS011;16507;51.046;6.406;2023-11-21T02:34:15;39.20;;;15.93;;
29574;SDS011;16507;51.046;6.406;2023-11-21T02:36:42;37.13;;;16.35;;
29574;SDS011;16507;51.046;6.406;2023-11-21T02:39:09;34.28;;;16.98;;
29574;SDS011;16507;51.046;6.406;2023-11-21T02:41:35;41.13;;;17.67;;
29574;SDS011;16507;51.046;6.406;2023-11-21T02:44:05;38.03;;;17.48;;
29574;SDS011;16507;51.046;6.406;2023-11-21T02:46:31;52.83;;;20.10;;
29574;SDS011;16507;51.046;6.406;2023-11-21T02:48:59;44.92;;;19.58;;
29574;SDS011;16507;51.046;6.406;2023-11-21T02:51:29;54.80;;;20.88;;
29574;SDS011;16507;51.046;6.406;2023-11-21T02:53:55;54.40;;;21.08;;
29574;SDS011;16507;51.046;6.406;2023-11-21T02:56:24;54.25;;;21.88;;
29574;SDS011;16507;51.046;6.406;2023-11-21T02:58:56;61.55;;;22.50;;
29574;SDS011;16507;51.046;6.406;2023-11-21T03:01:22;74.45;;;23.73;;
29574;SDS011;16507;51.046;6.406;2023-11-21T03:03:52;65.30;;;25.05;;
29574;SDS011;16507;51.046;6.406;2023-11-21T03:06:18;71.57;;;25.13;;
29574;SDS011;16507;51.046;6.406;2023-11-21T03:08:45;71.43;;;23.98;;
29574;SDS011;16507;51.046;6.406;2023-11-21T03:11:11;69.43;;;23.70;;
29574;SDS011;16507;51.046;6.406;2023-11-21T03:13:42;68.00;;;23.17;;
29574;SDS011;16507;51.046;6.406;2023-11-21T03:16:08;88.82;;;24.70;;
29574;SDS011;16507;51.046;6.406;2023-11-21T03:18:35;76.85;;;27.15;;
29574;SDS011;16507;51.046;6.406;2023-11-21T03:21:01;94.47;;;26.88;;
29574;SDS011;16507;51.046;6.406;2023-11-21T03:23:27;110.03;;;30.42;;
29574;SDS011;16507;51.046;6.406;2023-11-21T03:25:53;111.40;;;30.30;;
29574;SDS011;16507;51.046;6.406;2023-11-21T03:28:18;128.27;;;31.38;;
29574;SDS011;16507;51.046;6.406;2023-11-21T03:30:44;110.30;;;30.42;;
29574;SDS011;16507;51.046;6.406;2023-11-21T03:33:09;104.55;;;27.63;;
29574;SDS011;16507;51.046;6.406;2023-11-21T03:35:35;122.55;;;27.83;;
29574;SDS011;16507;51.046;6.406;2023-11-21T03:38:01;119.10;;;28.23;;
29574;SDS011;16507;51.046;6.406;2023-11-21T03:40:27;132.02;;;27.13;;
29574;SDS011;16507;51.046;6.406;2023-11-21T03:42:52;78.95;;;25.50;;
29574;SDS011;16507;51.046;6.406;2023-11-21T03:45:18;115.80;;;27.00;;
29574;SDS011;16507;51.046;6.406;2023-11-21T03:47:43;116.05;;;26.00;;
29574;SDS011;16507;51.046;6.406;2023-11-21T03:50:09;112.22;;;26.25;;
29574;SDS011;16507;51.046;6.406;2023-11-21T03:52:35;98.28;;;24.85;;
29574;SDS011;16507;51.046;6.406;2023-11-21T03:55:01;89.57;;;24.23;;
29574;SDS011;16507;51.046;6.406;2023-11-21T03:57:27;103.50;;;24.42;;
29574;SDS011;16507;51.046;6.406;2023-11-21T03:59:53;98.68;;;24.00;;
29574;SDS011;16507;51.046;6.406;2023-11-21T04:02:19;105.10;;;24.85;;
29574;SDS011;16507;51.046;6.406;2023-11-21T04:04:44;123.03;;;25.25;;
29574;SDS011;16507;51.046;6.406;2023-11-21T04:07:10;102.78;;;26.52;;
29574;SDS011;16507;51.046;6.406;2023-11-21T04:09:38;105.72;;;26.75;;
29574;SDS011;16507;51.046;6.406;2023-11-21T04:12:04;110.90;;;26.33;;
29574;SDS011;16507;51.046;6.406;2023-11-21T04:14:30;108.30;;;27.65;;
29574;SDS011;16507;51.046;6.406;2023-11-21T04:16:56;99.22;;;25.60;;
29574;SDS011;16507;51.046;6.406;2023-11-21T04:19:22;87.30;;;25.60;;
29574;SDS011;16507;51.046;6.406;2023-11-21T04:21:47;88.22;;;27.33;;
29574;SDS011;16507;51.046;6.406;2023-11-21T04:24:13;79.43;;;26.42;;
29574;SDS011;16507;51.046;6.406;2023-11-21T04:26:39;82.10;;;26.52;;
29574;SDS011;16507;51.046;6.406;2023-11-21T04:29:04;89.10;;;26.83;;
29574;SDS011;16507;51.046;6.406;2023-11-21T04:31:30;86.03;;;26.25;;
29574;SDS011;16507;51.046;6.406;2023-11-21T04:33:56;88.93;;;26.65;;
29574;SDS011;16507;51.046;6.406;2023-11-21T04:36:22;70.25;;;23.45;;
29574;SDS011;16507;51.046;6.406;2023-11-21T04:38:48;64.10;;;22.58;;
29574;SDS011;16507;51.046;6.406;2023-11-21T04:41:13;67.97;;;23.38;;
29574;SDS011;16507;51.046;6.406;2023-11-21T04:43:39;64.07;;;22.73;;
29574;SDS011;16507;51.046;6.406;2023-11-21T04:46:05;60.58;;;22.58;;
29574;SDS011;16507;51.046;6.406;2023-11-21T04:48:31;67.53;;;21.70;;
29574;SDS011;16507;51.046;6.406;2023-11-21T04:50:57;53.92;;;21.85;;
29574;SDS011;16507;51.046;6.406;2023-11-21T04:53:23;56.75;;;22.20;;
29574;SDS011;16507;51.046;6.406;2023-11-21T04:55:49;62.13;;;21.83;;
29574;SDS011;16507;51.046;6.406;2023-11-21T04:58:14;60.78;;;22.98;;
29574;SDS011;16507;51.046;6.406;2023-11-21T05:00:40;58.35;;;22.08;;
29574;SDS011;16507;51.046;6.406;2023-11-21T05:03:06;67.90;;;23.38;;
29574;SDS011;16507;51.046;6.406;2023-11-21T05:05:32;68.68;;;24.13;;
29574;SDS011;16507;51.046;6.406;2023-11-21T05:08:01;65.15;;;22.70;;
29574;SDS011;16507;51.046;6.406;2023-11-21T05:10:27;63.03;;;23.77;;
29574;SDS011;16507;51.046;6.406;2023-11-21T05:12:54;54.72;;;21.98;;
29574;SDS011;16507;51.046;6.406;2023-11-21T05:15:20;55.83;;;23.40;;
29574;SDS011;16507;51.046;6.406;2023-11-21T05:17:46;76.05;;;22.77;;
29574;SDS011;16507;51.046;6.406;2023-11-21T05:20:14;55.00;;;22.92;;
29574;SDS011;16507;51.046;6.406;2023-11-21T05:22:45;54.05;;;22.10;;
29574;SDS011;16507;51.046;6.406;2023-11-21T05:25:11;74.43;;;22.15;;
29574;SDS011;16507;51.046;6.406;2023-11-21T05:27:37;56.22;;;22.42;;
29574;SDS011;16507;51.046;6.406;2023-11-21T05:30:03;64.88;;;23.75;;
29574;SDS011;16507;51.046;6.406;2023-11-21T05:32:36;65.63;;;23.85;;
29574;SDS011;16507;51.046;6.406;2023-11-21T05:35:03;56.10;;;23.08;;
29574;SDS011;16507;51.046;6.406;2023-11-21T05:37:34;52.87;;;22.07;;
29574;SDS011;16507;51.046;6.406;2023-11-21T05:40:00;61.75;;;23.75;;
29574;SDS011;16507;51.046;6.406;2023-11-21T05:42:30;53.45;;;22.73;;
29574;SDS011;16507;51.046;6.406;2023-11-21T05:44:56;61.47;;;23.98;;
29574;SDS011;16507;51.046;6.406;2023-11-21T05:47:24;57.60;;;23.55;;
29574;SDS011;16507;51.046;6.406;2023-11-21T05:49:51;58.60;;;23.55;;
29574;SDS011;16507;51.046;6.406;2023-11-21T05:52:17;57.75;;;23.35;;
29574;SDS011;16507;51.046;6.406;2023-11-21T05:54:43;59.72;;;22.73;;
29574;SDS011;16507;51.046;6.406;2023-11-21T05:57:09;54.30;;;20.75;;
29574;SDS011;16507;51.046;6.406;2023-11-21T05:59:34;53.90;;;22.20;;
29574;SDS011;16507;51.046;6.406;2023-11-21T06:02:00;67.57;;;21.73;;
29574;SDS011;16507;51.046;6.406;2023-11-21T06:04:27;59.13;;;21.40;;
29574;SDS011;16507;51.046;6.406;2023-11-21T06:06:52;57.97;;;21.27;;
29574;SDS011;16507;51.046;6.406;2023-11-21T06:09:18;62.00;;;21.40;;
29574;SDS011;16507;51.046;6.406;2023-11-21T06:11:44;65.10;;;25.55;;
29574;SDS011;16507;51.046;6.406;2023-11-21T06:14:10;67.13;;;23.83;;
29574;SDS011;16507;51.046;6.406;2023-11-21T06:16:36;71.00;;;24.58;;
29574;SDS011;16507;51.046;6.406;2023-11-21T06:19:01;75.55;;;23.48;;
29574;SDS011;16507;51.046;6.406;2023-11-21T06:21:27;69.50;;;23.42;;
29574;SDS011;16507;51.046;6.406;2023-11-21T06:23:52;68.28;;;23.35;;
29574;SDS011;16507;51.046;6.406;2023-11-21T06:26:18;68.53;;;23.88;;
29574;SDS011;16507;51.046;6.406;2023-11-21T06:28:45;70.03;;;24.08;;
29574;SDS011;16507;51.046;6.406;2023-11-21T06:31:11;81.55;;;25.88;;
29574;SDS011;16507;51.046;6.406;2023-11-21T06:33:37;70.10;;;24.90;;
29574;SDS011;16507;51.046;6.406;2023-11-21T06:36:03;64.28;;;21.70;;
29574;SDS011;16507;51.046;6.406;2023-11-21T06:38:29;84.85;;;25.48;;
29574;SDS011;16507;51.046;6.406;2023-11-21T06:40:57;88.15;;;24.85;;
29574;SDS011;16507;51.046;6.406;2023-11-21T06:43:23;71.93;;;23.20;;
29574;SDS011;16507;51.046;6.406;2023-11-21T06:45:49;71.35;;;22.60;;
29574;SDS011;16507;51.046;6.406;2023-11-21T06:48:16;64.00;;;22.77;;
29574;SDS011;16507;51.046;6.406;2023-11-21T06:50:41;72.03;;;23.27;;
29574;SDS011;16507;51.046;6.406;2023-11-21T06:53:07;77.45;;;24.73;;
29574;SDS011;16507;51.046;6.406;2023-11-21T06:55:33;89.55;;;25.90;;
29574;SDS011;16507;51.046;6.406;2023-11-21T06:57:59;90.05;;;26.98;;
29574;SDS011;16507;51.046;6.406;2023-11-21T07:00:25;83.13;;;24.88;;
29574;SDS011;16507;51.046;6.406;2023-11-21T07:02:53;80.57;;;24.88;;
29574;SDS011;16507;51.046;6.406;2023-11-21T07:05:20;88.32;;;26.13;;
29574;SDS011;16507;51.046;6.406;2023-11-21T07:07:46;93.63;;;26.33;;
29574;SDS011;16507;51.046;6.406;2023-11-21T07:10:13;94.78;;;27.35;;
29574;SDS011;16507;51.046;6.406;2023-11-21T07:12:39;96.78;;;28.48;;
29574;SDS011;16507;51.046;6.406;2023-11-21T07:15:05;106.22;;;28.25;;
29574;SDS011;16507;51.046;6.406;2023-11-21T07:17:34;102.55;;;29.33;;
29574;SDS011;16507;51.046;6.406;2023-11-21T07:20:01;107.95;;;28.42;;
29574;SDS011;16507;51.046;6.406;2023-11-21T07:22:27;96.88;;;27.42;;
29574;SDS011;16507;51.046;6.406;2023-11-21T07:24:53;99.90;;;27.33;;
29574;SDS011;16507;51.046;6.406;2023-11-21T07:27:19;115.20;;;28.80;;
29574;SDS011;16507;51.046;6.406;2023-11-21T07:29:45;108.60;;;27.85;;
29574;SDS011;16507;51.046;6.406;2023-11-21T07:32:13;117.78;;;28.55;;
29574;SDS011;16507;51.046;6.406;2023-11-21T07:34:39;116.85;;;29.50;;
29574;SDS011;16507;51.046;6.406;2023-11-21T07:37:06;113.78;;;29.58;;
29574;SDS011;16507;51.046;6.406;2023-11-21T07:39:33;122.90;;;28.73;;
29574;SDS011;16507;51.046;6.406;2023-11-21T07:42:00;119.93;;;29.25;;
29574;SDS011;16507;51.046;6.406;2023-11-21T07:44:27;138.27;;;29.08;;
29574;SDS011;16507;51.046;6.406;2023-11-21T07:46:54;121.25;;;29.23;;
29574;SDS011;16507;51.046;6.406;2023-11-21T07:49:22;142.50;;;30.25;;
29574;SDS011;16507;51.046;6.406;2023-11-21T07:51:49;127.20;;;28.25;;
29574;SDS011;16507;51.046;6.406;2023-11-21T07:54:14;136.88;;;29.60;;
29574;SDS011;16507;51.046;6.406;2023-11-21T07:56:41;124.53;;;29.45;;
29574;SDS011;16507;51.046;6.406;2023-11-21T07:59:06;111.88;;;28.88;;
29574;SDS011;16507;51.046;6.406;2023-11-21T08:01:32;103.20;;;26.77;;
29574;SDS011;16507;51.046;6.406;2023-11-21T08:03:58;105.47;;;28.73;;
29574;SDS011;16507;51.046;6.406;2023-11-21T08:06:26;121.45;;;28.75;;
29574;SDS011;16507;51.046;6.406;2023-11-21T08:08:53;112.78;;;30.50;;
29574;SDS011;16507;51.046;6.406;2023-11-21T08:11:19;132.13;;;29.77;;
29574;SDS011;16507;51.046;6.406;2023-11-21T08:13:44;94.05;;;26.00;;
29574;SDS011;16507;51.046;6.406;2023-11-21T08:16:11;93.22;;;25.50;;
29574;SDS011;16507;51.046;6.406;2023-11-21T08:18:37;99.60;;;26.27;;
29574;SDS011;16507;51.046;6.406;2023-11-21T08:21:05;80.45;;;22.50;;
29574;SDS011;16507;51.046;6.406;2023-11-21T08:23:31;76.28;;;22.48;;
29574;SDS011;16507;51.046;6.406;2023-11-21T08:25:57;73.15;;;21.65;;
29574;SDS011;16507;51.046;6.406;2023-11-21T08:28:22;82.90;;;21.70;;
29574;SDS011;16507;51.046;6.406;2023-11-21T08:30:50;70.05;;;19.63;;
29574;SDS011;16507;51.046;6.406;2023-11-21T08:33:17;86.25;;;21.00;;
29574;SDS011;16507;51.046;6.406;2023-11-21T08:35:43;74.05;;;20.17;;
29574;SDS011;16507;51.046;6.406;2023-11-21T08:38:08;79.07;;;20.35;;
29574;SDS011;16507;51.046;6.406;2023-11-21T08:40:35;86.85;;;20.75;;
29574;SDS011;16507;51.046;6.406;2023-11-21T08:43:00;96.25;;;20.80;;
29574;SDS011;16507;51.046;6.406;2023-11-21T08:45:29;86.15;;;18.35;;
29574;SDS011;16507;51.046;6.406;2023-11-21T08:47:55;92.35;;;21.20;;
29574;SDS011;16507;51.046;6.406;2023-11-21T08:50:21;78.32;;;20.65;;
29574;SDS011;16507;51.046;6.406;2023-11-21T08:52:47;86.88;;;20.63;;
29574;SDS011;16507;51.046;6.406;2023-11-21T08:55:13;94.10;;;21.52;;
29574;SDS011;16507;51.046;6.406;2023-11-21T08:57:39;97.63;;;21.35;;
29574;SDS011;16507;51.046;6.406;2023-11-21T09:00:06;97.22;;;21.80;;
29574;SDS011;16507;51.046;6.406;2023-11-21T09:02:34;91.63;;;21.77;;
29574;SDS011;16507;51.046;6.406;2023-11-21T09:05:00;104.10;;;22.15;;
29574;SDS011;16507;51.046;6.406;2023-11-21T09:07:28;86.10;;;20.73;;
29574;SDS011;16507;51.046;6.406;2023-11-21T09:09:54;107.53;;;21.50;;
29574;SDS011;16507;51.046;6.406;2023-11-21T09:12:20;83.53;;;21.17;;
29574;SDS011;16507;51.046;6.406;2023-11-21T09:14:46;85.25;;;21.55;;
29574;SDS011;16507;51.046;6.406;2023-11-21T09:17:12;92.03;;;21.65;;
29574;SDS011;16507;51.046;6.406;2023-11-21T09:19:39;97.45;;;22.13;;
29574;SDS011;16507;51.046;6.406;2023-11-21T09:22:05;111.63;;;23.95;;
29574;SDS011;16507;51.046;6.406;2023-11-21T09:24:31;103.28;;;23.52;;
29574;SDS011;16507;51.046;6.406;2023-11-21T09:27:00;85.78;;;22.83;;
29574;SDS011;16507;51.046;6.406;2023-11-21T09:29:27;99.50;;;24.48;;
29574;SDS011;16507;51.046;6.406;2023-11-21T09:31:52;109.75;;;24.25;;
29574;SDS011;16507;51.046;6.406;2023-11-21T09:34:19;111.18;;;25.48;;
29574;SDS011;16507;51.046;6.406;2023-11-21T09:36:45;100.15;;;23.75;;
29574;SDS011;16507;51.046;6.406;2023-11-21T09:39:11;100.15;;;24.40;;
29574;SDS011;16507;51.046;6.406;2023-11-21T09:44:17;96.18;;;23.30;;
29574;SDS011;16507;51.046;6.406;2023-11-21T09:46:46;111.30;;;25.25;;
29574;SDS011;16507;51.046;6.406;2023-11-21T09:49:17;100.38;;;23.27;;
29574;SDS011;16507;51.046;6.406;2023-11-21T09:51:45;104.65;;;24.25;;
29574;SDS011;16507;51.046;6.406;2023-11-21T09:54:13;98.03;;;23.27;;
29574;SDS011;16507;51.046;6.406;2023-11-21T09:56:41;92.30;;;23.50;;
29574;SDS011;16507;51.046;6.406;2023-11-21T09:59:07;92.10;;;25.70;;
29574;SDS011;16507;51.046;6.406;2023-11-21T10:01:38;87.90;;;22.55;;
29574;SDS011;16507;51.046;6.406;2023-11-21T10:04:05;86.20;;;22.85;;
29574;SDS011;16507;51.046;6.406;2023-11-21T10:06:36;77.28;;;21.88;;
29574;SDS011;16507;51.046;6.406;2023-11-21T10:09:07;85.40;;;21.70;;
29574;SDS011;16507;51.046;6.406;2023-11-21T10:11:37;88.05;;;23.35;;
29574;SDS011;16507;51.046;6.406;2023-11-21T10:14:10;84.30;;;23.45;;
29574;SDS011;16507;51.046;6.406;2023-11-21T10:16:38;94.53;;;24.55;;
29574;SDS011;16507;51.046;6.406;2023-11-21T10:19:06;84.07;;;24.17;;
29574;SDS011;16507;51.046;6.406;2023-11-21T10:21:35;93.78;;;25.42;;
29574;SDS011;16507;51.046;6.406;2023-11-21T10:24:00;91.25;;;23.60;;
29574;SDS011;16507;51.046;6.406;2023-11-21T10:26:26;86.25;;;24.10;;
29574;SDS011;16507;51.046;6.406;2023-11-21T10:29:00;88.88;;;24.45;;
29574;SDS011;16507;51.046;6.406;2023-11-21T10:31:28;78.75;;;23.77;;
29574;SDS011;16507;51.046;6.406;2023-11-21T10:34:16;73.72;;;22.02;;
29574;SDS011;16507;51.046;6.406;2023-11-21T10:36:44;75.13;;;22.92;;
29574;SDS011;16507;51.046;6.406;2023-11-21T10:39:14;80.55;;;21.48;;
29574;SDS011;16507;51.046;6.406;2023-11-21T10:41:44;82.10;;;22.20;;
29574;SDS011;16507;51.046;6.406;2023-11-21T10:44:13;73.25;;;23.35;;
29574;SDS011;16507;51.046;6.406;2023-11-21T10:46:45;83.68;;;23.25;;
29574;SDS011;16507;51.046;6.406;2023-11-21T10:49:15;76.05;;;22.80;;
29574;SDS011;16507;51.046;6.406;2023-11-21T10:51:55;71.68;;;24.20;;
29574;SDS011;16507;51.046;6.406;2023-11-21T10:54:21;68.60;;;22.40;;
29574;SDS011;16507;51.046;6.406;2023-11-21T10:56:53;68.55;;;22.42;;
29574;SDS011;16507;51.046;6.406;2023-11-21T10:59:23;68.55;;;22.00;;
29574;SDS011;16507;51.046;6.406;2023-11-21T11:01:54;72.22;;;22.05;;
29574;SDS011;16507;51.046;6.406;2023-11-21T11:04:22;64.30;;;21.27;;
29574;SDS011;16507;51.046;6.406;2023-11-21T11:07:01;73.40;;;21.00;;
29574;SDS011;16507;51.046;6.406;2023-11-21T11:09:28;60.97;;;20.67;;
29574;SDS011;16507;51.046;6.406;2023-11-21T11:11:58;59.65;;;20.10;;
29574;SDS011;16507;51.046;6.406;2023-11-21T11:14:24;58.53;;;20.55;;
29574;SDS011;16507;51.046;6.406;2023-11-21T11:16:53;56.65;;;19.75;;
29574;SDS011;16507;51.046;6.406;2023-11-21T11:19:20;52.67;;;19.65;;
29574;SDS011;16507;51.046;6.406;2023-11-21T11:24:49;48.00;;;17.17;;
29574;SDS011;16507;51.046;6.406;2023-11-21T11:27:44;49.88;;;16.13;;
29574;SDS011;16507;51.046;6.406;2023-11-21T11:36:13;37.35;;;13.85;;
29574;SDS011;16507;51.046;6.406;2023-11-21T11:38:55;54.20;;;15.88;;
29574;SDS011;16507;51.046;6.406;2023-11-21T11:41:31;44.05;;;15.05;;
29574;SDS011;16507;51.046;6.406;2023-11-21T11:44:02;44.33;;;14.77;;
29574;SDS011;16507;51.046;6.406;2023-11-21T11:46:42;47.13;;;15.13;;
29574;SDS011;16507;51.046;6.406;2023-11-21T11:49:10;49.35;;;15.65;;
29574;SDS011;16507;51.046;6.406;2023-11-21T11:51:36;42.35;;;14.48;;
29574;SDS011;16507;51.046;6.406;2023-11-21T11:54:02;48.30;;;15.10;;
29574;SDS011;16507;51.046;6.406;2023-11-21T11:56:29;38.67;;;14.68;;
29574;SDS011;16507;51.046;6.406;2023-11-21T11:58:59;39.40;;;14.05;;
29574;SDS011;16507;51.046;6.406;2023-11-21T12:01:34;44.75;;;15.30;;
29574;SDS011;16507;51.046;6.406;2023-11-21T12:06:48;34.33;;;13.05;;
29574;SDS011;16507;51.046;6.406;2023-11-21T12:09:23;29.52;;;12.15;;
29574;SDS011;16507;51.046;6.406;2023-11-21T12:11:49;24.88;;;12.38;;
29574;SDS011;16507;51.046;6.406;2023-11-21T12:14:15;28.33;;;11.85;;
29574;SDS011;16507;51.046;6.406;2023-11-21T12:16:41;24.73;;;11.88;;
29574;SDS011;16507;51.046;6.406;2023-11-21T12:19:13;28.65;;;12.45;;
29574;SDS011;16507;51.046;6.406;2023-11-21T12:21:40;33.65;;;12.45;;
29574;SDS011;16507;51.046;6.406;2023-11-21T12:24:09;36.05;;;13.98;;
29574;SDS011;16507;51.046;6.406;2023-11-21T12:26:35;36.10;;;12.85;;
29574;SDS011;16507;51.046;6.406;2023-11-21T12:29:03;39.08;;;12.93;;
29574;SDS011;16507;51.046;6.406;2023-11-21T12:31:32;31.98;;;12.80;;
29574;SDS011;16507;51.046;6.406;2023-11-21T12:33:59;49.47;;;14.32;;
29574;SDS011;16507;51.046;6.406;2023-11-21T12:36:28;33.08;;;13.70;;
29574;SDS011;16507;51.046;6.406;2023-11-21T12:38:55;32.60;;;13.52;;
29574;SDS011;16507;51.046;6.406;2023-11-21T12:41:21;34.22;;;13.80;;
29574;SDS011;16507;51.046;6.406;2023-11-21T12:43:47;41.95;;;14.50;;
29574;SDS011;16507;51.046;6.406;2023-11-21T12:46:12;41.00;;;14.55;;
29574;SDS011;16507;51.046;6.406;2023-11-21T12:48:43;47.20;;;14.63;;
29574;SDS011;16507;51.046;6.406;2023-11-21T12:51:10;49.78;;;14.48;;
29574;SDS011;16507;51.046;6.406;2023-11-21T12:53:40;46.08;;;14.18;;
29574;SDS011;16507;51.046;6.406;2023-11-21T12:56:07;52.85;;;14.65;;
29574;SDS011;16507;51.046;6.406;2023-11-21T12:58:38;35.88;;;13.25;;
29574;SDS011;16507;51.046;6.406;2023-11-21T13:01:05;43.83;;;14.95;;
29574;SDS011;16507;51.046;6.406;2023-11-21T13:03:37;49.30;;;17.57;;
29574;SDS011;16507;51.046;6.406;2023-11-21T13:06:03;43.05;;;15.43;;
29574;SDS011;16507;51.046;6.406;2023-11-21T13:08:30;37.20;;;15.05;;
29574;SDS011;16507;51.046;6.406;2023-11-21T13:10:57;41.42;;;16.08;;
29574;SDS011;16507;51.046;6.406;2023-11-21T13:13:24;43.03;;;15.00;;
29574;SDS011;16507;51.046;6.406;2023-11-21T13:15:56;35.28;;;13.50;;
29574;SDS011;16507;51.046;6.406;2023-11-21T13:18:26;42.92;;;15.10;;
29574;SDS011;16507;51.046;6.406;2023-11-21T13:20:56;41.15;;;14.60;;
29574;SDS011;16507;51.046;6.406;2023-11-21T13:23:24;46.90;;;15.43;;
29574;SDS011;16507;51.046;6.406;2023-11-21T13:25:50;42.80;;;15.27;;
29574;SDS011;16507;51.046;6.406;2023-11-21T13:28:17;39.47;;;15.57;;
29574;SDS011;16507;51.046;6.406;2023-11-21T13:30:46;35.90;;;15.27;;
29574;SDS011;16507;51.046;6.406;2023-11-21T13:33:13;44.22;;;14.90;;
29574;SDS011;16507;51.046;6.406;2023-11-21T13:35:42;41.20;;;14.32;;
29574;SDS011;16507;51.046;6.406;2023-11-21T13:38:16;38.65;;;15.57;;
29574;SDS011;16507;51.046;6.406;2023-11-21T13:40:47;38.30;;;14.32;;
29574;SDS011;16507;51.046;6.406;2023-11-21T13:43:22;38.00;;;14.23;;
29574;SDS011;16507;51.046;6.406;2023-11-21T13:45:50;40.05;;;15.60;;
29574;SDS011;16507;51.046;6.406;2023-11-21T13:48:25;37.45;;;14.90;;
29574;SDS011;16507;51.046;6.406;2023-11-21T13:50:57;42.50;;;15.10;;
29574;SDS011;16507;51.046;6.406;2023-11-21T13:53:26;43.95;;;14.27;;
29574;SDS011;16507;51.046;6.406;2023-11-21T13:55:52;41.65;;;15.07;;
29574;SDS011;16507;51.046;6.406;2023-11-21T13:58:25;35.53;;;15.13;;
29574;SDS011;16507;51.046;6.406;2023-11-21T14:01:09;45.78;;;15.23;;
29574;SDS011;16507;51.046;6.406;2023-11-21T14:03:50;48.83;;;16.23;;
29574;SDS011;16507;51.046;6.406;2023-11-21T14:06:17;39.95;;;15.90;;
29574;SDS011;16507;51.046;6.406;2023-11-21T14:08:49;46.45;;;16.83;;
29574;SDS011;16507;51.046;6.406;2023-11-21T14:11:15;44.55;;;16.90;;
29574;SDS011;16507;51.046;6.406;2023-11-21T14:13:43;37.60;;;15.77;;
29574;SDS011;16507;51.046;6.406;2023-11-21T14:16:12;34.30;;;14.52;;
29574;SDS011;16507;51.046;6.406;2023-11-21T14:18:39;43.33;;;15.02;;
29574;SDS011;16507;51.046;6.406;2023-11-21T14:21:17;36.42;;;13.85;;
29574;SDS011;16507;51.046;6.406;2023-11-21T14:23:43;28.05;;;12.45;;
29574;SDS011;16507;51.046;6.406;2023-11-21T14:26:10;31.25;;;11.60;;
29574;SDS011;16507;51.046;6.406;2023-11-21T14:28:40;37.67;;;12.00;;
29574;SDS011;16507;51.046;6.406;2023-11-21T14:31:06;25.75;;;11.25;;
29574;SDS011;16507;51.046;6.406;2023-11-21T14:33:32;22.33;;;11.40;;
29574;SDS011;16507;51.046;6.406;2023-11-21T14:35:58;26.00;;;10.68;;